Riverside, New Mexico
Current Conditions -  °F | °C
As of 11:15 AM on Thursday 18 Dec 2014 (Local Time) from KLAM Reporting Station
Clear Clear  
Wind Chill: 32°   Ceiling: Unl
Heat Index: 32°   Visibility: 10mi
Dew Point: 26°   Wind: 3mph
Humidity: 76%   Direction: 100°E
Pressure: 30.13"   Gusts: NA
Location:  35.9775°N, 106.158°W
Report Text: KLAM 181815Z AUTO 10003KT 10SM CLR 00/M04 A3013 RMK AO2 T00021036
Loading
Personal Weather Stations






























Interactive Weather Map New forecast layout! Learn more

10-Day Weather Forecast

Advertisements
Track Severe Weather on mobile